createdAt,value
2022-11-21T00:01:39.294Z,-2.73
2022-11-21T00:04:08.385Z,-2.68
2022-11-21T00:06:37.411Z,-2.60
2022-11-21T00:09:06.435Z,-2.62
2022-11-21T00:11:35.544Z,-2.68
2022-11-21T00:14:04.708Z,-2.76
2022-11-21T00:16:35.165Z,-2.73
2022-11-21T00:19:05.441Z,-2.70
2022-11-21T00:21:34.603Z,-2.68
2022-11-21T00:24:03.674Z,-2.63
2022-11-21T00:26:32.692Z,-2.66
2022-11-21T00:29:01.714Z,-2.65
2022-11-21T00:31:31.309Z,-2.72
2022-11-21T00:34:01.703Z,-2.64
2022-11-21T00:36:30.736Z,-2.69
2022-11-21T00:38:59.797Z,-2.73
2022-11-21T00:41:28.796Z,-2.87
2022-11-21T00:43:57.790Z,-3.09
2022-11-21T00:46:26.857Z,-3.25
2022-11-21T00:48:55.884Z,-3.40
2022-11-21T00:51:26.363Z,-3.38
2022-11-21T00:53:55.398Z,-3.25
2022-11-21T00:56:24.464Z,-3.16
2022-11-21T00:58:53.502Z,-3.06
2022-11-21T01:01:22.668Z,-2.96
2022-11-21T01:03:51.766Z,-3.03
2022-11-21T01:06:20.816Z,-2.96
2022-11-21T01:08:51.250Z,-2.94
2022-11-21T01:11:22.023Z,-2.96
2022-11-21T01:13:54.128Z,-2.97
2022-11-21T01:16:24.828Z,-3.02
2022-11-21T01:18:54.295Z,-3.04
2022-11-21T01:21:25.528Z,-3.03
2022-11-21T01:23:56.351Z,-2.98
2022-11-21T01:26:27.638Z,-2.92
2022-11-21T01:28:58.064Z,-2.95
2022-11-21T01:31:29.406Z,-2.89
2022-11-21T01:34:00.030Z,-2.87
2022-11-21T01:36:30.768Z,-2.82
2022-11-21T01:39:02.584Z,-2.84
2022-11-21T01:41:33.644Z,-2.84
2022-11-21T01:44:03.265Z,-2.81
2022-11-21T01:46:32.320Z,-2.88
2022-11-21T01:49:07.719Z,-2.80
2022-11-21T01:51:41.634Z,-2.84
2022-11-21T01:54:15.668Z,-2.81
2022-11-21T01:56:50.384Z,-2.87
2022-11-21T01:59:24.106Z,-2.86
2022-11-21T02:01:55.109Z,-2.91
2022-11-21T02:04:27.453Z,-2.93
2022-11-21T02:06:56.820Z,-2.90
2022-11-21T02:09:27.580Z,-2.90
2022-11-21T02:11:59.573Z,-2.88
2022-11-21T02:14:30.177Z,-2.78
2022-11-21T02:17:02.898Z,-2.80
2022-11-21T02:19:39.429Z,-2.88
2022-11-21T02:22:16.227Z,-2.87
2022-11-21T02:24:50.382Z,-2.88
2022-11-21T02:27:20.814Z,-2.86
2022-11-21T02:29:49.902Z,-2.89
2022-11-21T02:32:23.772Z,-2.84
2022-11-21T02:34:52.844Z,-2.75
2022-11-21T02:37:21.993Z,-2.73
2022-11-21T02:39:51.625Z,-2.84
2022-11-21T02:42:29.576Z,-2.92
2022-11-21T02:45:06.356Z,-2.91
2022-11-21T02:47:36.984Z,-2.96
2022-11-21T02:50:14.267Z,-2.93
2022-11-21T02:52:43.675Z,-3.01
2022-11-21T02:55:13.494Z,-3.10
2022-11-21T02:57:44.201Z,-3.18
2022-11-21T03:00:14.029Z,-3.21
2022-11-21T03:02:43.344Z,-3.27
2022-11-21T03:05:15.180Z,-3.29
2022-11-21T03:07:44.670Z,-3.42
2022-11-21T03:10:14.007Z,-3.32
2022-11-21T03:12:45.403Z,-3.38
2022-11-21T03:15:16.303Z,-3.42
2022-11-21T03:17:49.142Z,-3.39
2022-11-21T03:20:18.187Z,-3.36
2022-11-21T03:22:47.232Z,-3.36
2022-11-21T03:25:16.383Z,-3.36
2022-11-21T03:27:46.796Z,-3.32
2022-11-21T03:30:16.514Z,-3.34
2022-11-21T03:32:45.621Z,-3.44
2022-11-21T03:35:14.987Z,-3.48
2022-11-21T03:37:44.088Z,-3.56
2022-11-21T03:40:13.877Z,-3.53
2022-11-21T03:42:42.895Z,-3.52
2022-11-21T03:45:13.376Z,-3.49
2022-11-21T03:47:43.300Z,-3.46
2022-11-21T03:50:15.036Z,-3.41
2022-11-21T03:52:44.053Z,-3.45
2022-11-21T03:55:13.128Z,-3.47
2022-11-21T03:57:42.167Z,-3.55
2022-11-21T04:00:14.565Z,-3.55
2022-11-21T04:02:43.626Z,-3.54
2022-11-21T04:05:12.692Z,-3.66
2022-11-21T04:07:41.771Z,-3.55
2022-11-21T04:10:11.461Z,-3.64
2022-11-21T04:12:40.512Z,-3.68
2022-11-21T04:15:13.690Z,-3.69
2022-11-21T04:17:44.504Z,-3.71
2022-11-21T04:20:13.739Z,-3.71
2022-11-21T04:22:43.396Z,-3.79
2022-11-21T04:25:13.697Z,-3.81
2022-11-21T04:27:42.729Z,-3.85
2022-11-21T04:30:12.784Z,-3.93
2022-11-21T04:32:44.074Z,-3.89
2022-11-21T04:35:13.101Z,-3.91
2022-11-21T04:37:42.151Z,-3.95
2022-11-21T04:40:12.440Z,-3.97
2022-11-21T04:42:43.444Z,-4.00
2022-11-21T04:45:13.793Z,-4.01
2022-11-21T04:47:45.809Z,-4.00
2022-11-21T04:50:16.964Z,-4.01
2022-11-21T04:52:51.040Z,-4.10
2022-11-21T04:55:20.530Z,-4.02
2022-11-21T04:57:49.715Z,-3.92
2022-11-21T05:00:24.240Z,-3.99
2022-11-21T05:02:55.017Z,-4.07
2022-11-21T05:05:24.081Z,-4.07
2022-11-21T05:07:53.097Z,-4.12
2022-11-21T05:10:22.187Z,-4.17
2022-11-21T05:13:15.983Z,-4.06
2022-11-21T05:15:45.019Z,-4.06
2022-11-21T05:18:15.411Z,-4.08
2022-11-21T05:20:44.470Z,-4.10
2022-11-21T05:23:13.499Z,-4.10
2022-11-21T05:25:42.528Z,-4.15
2022-11-21T05:28:11.581Z,-4.16
2022-11-21T05:30:40.662Z,-4.18
2022-11-21T05:33:09.647Z,-4.27
2022-11-21T05:35:43.447Z,-4.13
2022-11-21T05:38:13.018Z,-4.20
2022-11-21T05:40:42.273Z,-4.17
2022-11-21T05:43:30.109Z,-4.20
2022-11-21T05:45:59.325Z,-4.34
2022-11-21T05:48:28.439Z,-4.30
2022-11-21T05:50:58.863Z,-4.26
2022-11-21T05:53:28.724Z,-4.24
2022-11-21T05:56:02.838Z,-4.28
2022-11-21T05:58:32.943Z,-4.14
2022-11-21T06:01:03.775Z,-4.03
2022-11-21T06:03:36.167Z,-4.06
2022-11-21T06:06:11.950Z,-3.98
2022-11-21T06:08:43.512Z,-4.01
2022-11-21T06:11:15.098Z,-3.96
2022-11-21T06:13:44.964Z,-4.01
2022-11-21T06:16:15.852Z,-3.93
2022-11-21T06:18:46.388Z,-3.91
2022-11-21T06:21:18.915Z,-4.00
2022-11-21T06:23:48.898Z,-3.93
2022-11-21T06:26:20.494Z,-3.84
2022-11-21T06:28:49.769Z,-3.86
2022-11-21T06:31:20.649Z,-3.91
2022-11-21T06:33:53.976Z,-3.94
2022-11-21T06:36:24.613Z,-3.77
2022-11-21T06:38:55.590Z,-3.84
2022-11-21T06:41:26.655Z,-3.77
2022-11-21T06:43:55.752Z,-3.67
2022-11-21T06:46:24.866Z,-3.73
2022-11-21T06:48:54.882Z,-3.78
2022-11-21T06:51:26.277Z,-3.75
2022-11-21T06:53:57.377Z,-3.78
2022-11-21T06:56:27.313Z,-3.76
2022-11-21T06:58:56.951Z,-3.69
2022-11-21T07:01:26.430Z,-3.63
2022-11-21T07:03:56.158Z,-3.66
2022-11-21T07:06:27.173Z,-3.76
2022-11-21T07:09:25.198Z,-3.74
2022-11-21T07:11:45.766Z,-3.77
2022-11-21T07:14:13.839Z,-3.73
2022-11-21T07:16:42.865Z,-3.77
2022-11-21T07:19:12.074Z,-3.70
2022-11-21T07:21:43.061Z,-3.73
2022-11-21T07:24:12.426Z,-3.76
2022-11-21T07:26:41.483Z,-3.78
2022-11-21T07:29:10.752Z,-3.78
2022-11-21T07:31:40.082Z,-3.75
2022-11-21T07:34:09.141Z,-3.72
2022-11-21T07:36:38.245Z,-3.72
2022-11-21T07:39:08.716Z,-3.67
2022-11-21T07:41:37.805Z,-3.65
2022-11-21T07:44:07.012Z,-3.59
2022-11-21T07:46:36.074Z,-3.60
2022-11-21T07:49:05.192Z,-3.59
2022-11-21T07:51:34.897Z,-3.59
2022-11-21T07:54:04.246Z,-3.57
2022-11-21T07:56:34.701Z,-3.48
2022-11-21T07:59:03.698Z,-3.48
2022-11-21T08:01:33.933Z,-3.36
2022-11-21T08:04:03.062Z,-3.24
2022-11-21T08:06:32.040Z,-3.19
2022-11-21T08:09:01.096Z,-3.15
2022-11-21T08:11:30.901Z,-3.13
2022-11-21T08:14:01.636Z,-3.11
2022-11-21T08:16:32.828Z,-3.07
2022-11-21T08:19:02.014Z,-2.94
2022-11-21T08:21:31.376Z,-2.88
2022-11-21T08:24:00.459Z,-2.81
2022-11-21T08:26:29.481Z,-2.50
2022-11-21T08:29:00.031Z,-2.45
2022-11-21T08:31:30.669Z,-2.34
2022-11-21T08:33:59.832Z,-2.24
2022-11-21T08:36:28.894Z,-2.24
2022-11-21T08:38:58.076Z,-2.06
2022-11-21T08:41:44.917Z,-2.04
2022-11-21T08:44:14.492Z,-1.96
2022-11-21T08:46:44.973Z,-1.88
2022-11-21T08:49:14.097Z,-1.90
2022-11-21T08:51:43.142Z,-1.93
2022-11-21T08:54:12.265Z,-1.97
2022-11-21T08:56:41.255Z,-2.00
2022-11-21T08:59:10.247Z,-1.90
2022-11-21T09:01:39.665Z,-1.46
2022-11-21T09:04:10.320Z,-1.20
2022-11-21T09:06:39.992Z,-0.75
2022-11-21T09:09:09.443Z,-0.46
2022-11-21T09:11:38.689Z,-0.49
2022-11-21T09:14:25.146Z,-0.40
2022-11-21T09:17:11.474Z,-0.58
2022-11-21T09:19:41.958Z,-0.47
2022-11-21T09:22:11.010Z,-0.81
2022-11-21T09:24:40.212Z,-0.92
2022-11-21T09:27:09.493Z,-0.51
2022-11-21T09:29:38.573Z,-0.31
2022-11-21T09:32:07.648Z,-0.44
2022-11-21T09:34:36.709Z,-0.68
2022-11-21T09:37:07.189Z,-0.76
2022-11-21T09:39:36.297Z,-0.97
2022-11-21T09:42:27.279Z,-0.91
2022-11-21T09:45:14.325Z,-0.93
2022-11-21T09:47:46.572Z,-0.76
2022-11-21T09:50:27.135Z,-0.75
2022-11-21T09:53:01.985Z,-0.65
2022-11-21T09:55:39.415Z,-0.72
2022-11-21T09:58:17.099Z,-0.73
2022-11-21T10:00:46.196Z,-0.34
2022-11-21T10:03:19.419Z,0.10
2022-11-21T10:05:56.013Z,0.27
2022-11-21T10:08:41.936Z,0.17
2022-11-21T10:11:21.591Z,0.29
2022-11-21T10:14:07.985Z,0.51
2022-11-21T10:16:44.987Z,0.41
2022-11-21T10:19:43.195Z,1.21
2022-11-21T10:22:40.003Z,0.77
2022-11-21T10:25:15.604Z,0.72
2022-11-21T10:27:51.887Z,0.93
2022-11-21T10:30:22.624Z,0.80
2022-11-21T10:32:55.435Z,0.96
2022-11-21T10:35:26.542Z,0.68
2022-11-21T10:37:58.533Z,0.75
2022-11-21T10:40:36.965Z,0.86
2022-11-21T10:43:28.803Z,0.69
2022-11-21T10:45:58.072Z,0.92
2022-11-21T10:48:27.136Z,0.92
2022-11-21T10:51:12.255Z,0.90
2022-11-21T10:54:04.573Z,1.09
2022-11-21T10:56:38.249Z,1.21
2022-11-21T10:59:25.686Z,1.36
2022-11-21T11:01:59.455Z,2.02
2022-11-21T11:04:33.503Z,1.71
2022-11-21T11:07:23.420Z,1.58
2022-11-21T11:09:53.533Z,1.49
2022-11-21T11:12:46.111Z,1.76
2022-11-21T11:15:20.716Z,1.97
2022-11-21T11:17:55.676Z,2.00
2022-11-21T11:20:36.952Z,1.75
2022-11-21T11:23:27.334Z,1.50
2022-11-21T11:25:58.359Z,1.58
2022-11-21T11:28:37.064Z,1.43
2022-11-21T11:31:06.282Z,1.48
2022-11-21T11:33:37.242Z,1.51
2022-11-21T11:36:20.948Z,1.49
2022-11-21T11:38:55.945Z,1.60
2022-11-21T11:42:00.909Z,1.90
2022-11-21T11:45:01.251Z,2.26
2022-11-21T11:47:35.312Z,2.31
2022-11-21T11:50:15.354Z,2.29
2022-11-21T11:52:54.965Z,2.22
2022-11-21T11:55:31.693Z,1.97
2022-11-21T11:58:04.100Z,2.19
2022-11-21T12:00:43.192Z,2.00
2022-11-21T12:03:19.634Z,2.16
2022-11-21T12:06:04.761Z,2.04
2022-11-21T12:08:47.484Z,2.02
2022-11-21T12:11:48.927Z,1.97
2022-11-21T12:14:51.520Z,2.07
2022-11-21T12:17:28.539Z,2.36
2022-11-21T12:20:00.593Z,2.85
2022-11-21T12:22:29.744Z,2.98
2022-11-21T12:24:58.824Z,3.18
2022-11-21T12:27:32.164Z,3.42
2022-11-21T12:30:52.336Z,3.24
2022-11-21T12:33:24.919Z,2.99
2022-11-21T12:36:24.002Z,3.30
2022-11-21T12:39:17.371Z,3.20
2022-11-21T12:42:13.687Z,3.18
2022-11-21T12:45:01.893Z,2.85
2022-11-21T12:48:08.610Z,3.09
2022-11-21T12:51:06.249Z,2.77
2022-11-21T12:53:59.769Z,2.69
2022-11-21T12:56:38.864Z,2.76
2022-11-21T12:59:13.296Z,2.83
2022-11-21T13:01:51.610Z,2.85
2022-11-21T13:04:25.632Z,2.89
2022-11-21T13:06:58.680Z,2.78
2022-11-21T13:09:33.142Z,2.84
2022-11-21T13:12:07.881Z,2.66
2022-11-21T13:14:48.286Z,2.53
2022-11-21T13:17:39.424Z,2.50
2022-11-21T13:20:20.203Z,2.59
2022-11-21T13:22:56.195Z,2.80
2022-11-21T13:25:47.490Z,2.70
2022-11-21T13:28:34.511Z,2.83
2022-11-21T13:31:26.903Z,3.13
2022-11-21T13:33:56.258Z,3.13
2022-11-21T13:36:42.992Z,3.52
2022-11-21T13:39:38.741Z,3.76
2022-11-21T13:42:32.346Z,3.15
2022-11-21T13:45:43.479Z,2.85
2022-11-21T13:48:39.239Z,2.85
2022-11-21T13:51:37.546Z,2.65
2022-11-21T13:54:33.603Z,2.78
2022-11-21T13:57:15.227Z,2.49
2022-11-21T14:00:01.512Z,2.64
2022-11-21T14:02:48.672Z,2.32
2022-11-21T14:05:57.846Z,2.14
2022-11-21T14:08:29.006Z,2.03
2022-11-21T14:10:58.826Z,1.86
2022-11-21T14:13:32.265Z,1.98
2022-11-21T14:16:25.092Z,1.94
2022-11-21T14:18:55.271Z,1.74
2022-11-21T14:21:27.991Z,1.56
2022-11-21T14:23:59.780Z,1.51
2022-11-21T14:26:32.777Z,1.42
2022-11-21T14:29:22.756Z,1.24
2022-11-21T14:31:52.267Z,1.12
2022-11-21T14:34:29.446Z,1.02
2022-11-21T14:37:01.512Z,0.95
2022-11-21T14:39:39.846Z,0.97
2022-11-21T14:42:15.813Z,0.90
2022-11-21T14:44:46.272Z,0.93
2022-11-21T14:47:23.424Z,0.83
2022-11-21T14:50:02.280Z,0.78
2022-11-21T14:52:35.937Z,0.67
2022-11-21T14:55:29.155Z,0.63
2022-11-21T14:57:56.832Z,0.54
2022-11-21T15:00:59.235Z,0.49
2022-11-21T15:03:21.963Z,0.42
2022-11-21T15:06:05.910Z,0.36
2022-11-21T15:11:35.946Z,0.20
2022-11-21T15:14:16.012Z,0.13
2022-11-21T15:16:49.470Z,0.12
2022-11-21T15:19:27.505Z,0.07
2022-11-21T15:21:58.780Z,0.05
2022-11-21T15:24:37.380Z,0.03
2022-11-21T15:27:29.235Z,-0.09
2022-11-21T15:30:29.116Z,-0.15
2022-11-21T15:33:08.690Z,-0.23
2022-11-21T15:35:44.388Z,-0.25
2022-11-21T15:38:23.315Z,-0.26
2022-11-21T15:41:04.598Z,-0.31
2022-11-21T15:43:42.532Z,-0.32
2022-11-21T15:46:17.630Z,-0.42
2022-11-21T15:48:49.165Z,-0.55
2022-11-21T15:51:27.231Z,-0.52
2022-11-21T15:54:11.993Z,-0.62
2022-11-21T15:56:41.353Z,-0.53
2022-11-21T15:59:10.804Z,-0.49
2022-11-21T16:01:40.116Z,-0.60
2022-11-21T16:04:12.219Z,-0.66
2022-11-21T16:06:41.790Z,-0.70
2022-11-21T16:09:10.919Z,-0.78
2022-11-21T16:11:40.525Z,-0.76
2022-11-21T16:14:10.184Z,-0.80
2022-11-21T16:16:43.187Z,-0.99
2022-11-21T16:19:15.384Z,-1.15
2022-11-21T16:21:44.705Z,-1.32
2022-11-21T16:24:13.842Z,-1.44
2022-11-21T16:26:42.893Z,-1.45
2022-11-21T16:29:12.601Z,-1.54
2022-11-21T16:31:41.650Z,-1.65
2022-11-21T16:34:10.694Z,-1.71
2022-11-21T16:36:41.238Z,-1.77
2022-11-21T16:39:16.618Z,-1.74
2022-11-21T16:41:48.981Z,-1.65
2022-11-21T16:44:18.629Z,-1.67
2022-11-21T16:46:51.487Z,-1.72
2022-11-21T16:49:20.621Z,-1.71
2022-11-21T16:51:51.125Z,-1.86
2022-11-21T16:54:20.220Z,-1.81
2022-11-21T16:56:49.295Z,-1.87
2022-11-21T16:59:18.377Z,-1.90
2022-11-21T17:01:47.533Z,-1.95
2022-11-21T17:04:17.671Z,-1.99
2022-11-21T17:06:48.867Z,-2.03
2022-11-21T17:09:19.336Z,-2.03
2022-11-21T17:11:48.430Z,-2.08
2022-11-21T17:14:17.455Z,-2.09
2022-11-21T17:16:48.753Z,-2.09
2022-11-21T17:19:17.928Z,-2.02
2022-11-21T17:21:47.036Z,-1.92
2022-11-21T17:24:16.767Z,-1.86
2022-11-21T17:26:47.200Z,-1.84
2022-11-21T17:29:16.308Z,-1.58
2022-11-21T17:31:45.331Z,-1.54
2022-11-21T17:34:15.410Z,-1.58
2022-11-21T17:36:44.459Z,-1.66
2022-11-21T17:39:13.703Z,-1.67
2022-11-21T17:41:42.755Z,-1.68
2022-11-21T17:44:16.200Z,-1.75
2022-11-21T17:46:45.324Z,-1.81
2022-11-21T17:49:14.504Z,-1.79
2022-11-21T17:51:43.892Z,-1.80
2022-11-21T17:54:13.014Z,-1.75
2022-11-21T17:56:46.615Z,-1.93
2022-11-21T17:59:19.707Z,-2.00
2022-11-21T18:01:48.888Z,-1.93
2022-11-21T18:04:18.391Z,-2.01
2022-11-21T18:06:47.497Z,-2.04
2022-11-21T18:09:17.509Z,-2.04
2022-11-21T18:11:46.757Z,-2.03
2022-11-21T18:14:16.588Z,-1.96
2022-11-21T18:16:52.719Z,-2.02
2022-11-21T18:19:24.100Z,-2.03
2022-11-21T18:21:53.267Z,-2.02
2022-11-21T18:24:22.436Z,-2.02
2022-11-21T18:26:51.795Z,-2.04
2022-11-21T18:29:38.239Z,-2.11
2022-11-21T18:32:08.842Z,-2.09
2022-11-21T18:34:37.892Z,-2.10
2022-11-21T18:37:07.045Z,-2.19
2022-11-21T18:39:36.156Z,-2.22
2022-11-21T18:42:05.232Z,-2.23
2022-11-21T18:44:34.283Z,-2.22
2022-11-21T18:47:19.403Z,-2.31
2022-11-21T18:49:50.758Z,-2.34
2022-11-21T18:52:19.825Z,-2.36
2022-11-21T18:54:48.889Z,-2.37
2022-11-21T18:57:18.084Z,-2.40
2022-11-21T18:59:47.231Z,-2.48
2022-11-21T19:02:16.468Z,-2.43
2022-11-21T19:04:45.518Z,-2.30
2022-11-21T19:07:16.043Z,-2.44
2022-11-21T19:09:46.448Z,-2.43
2022-11-21T19:12:16.390Z,-2.34
2022-11-21T19:14:45.507Z,-2.32
2022-11-21T19:17:14.962Z,-2.48
2022-11-21T19:19:44.371Z,-2.55
2022-11-21T19:22:15.055Z,-2.48
2022-11-21T19:24:44.161Z,-2.58
2022-11-21T19:27:15.576Z,-2.59
2022-11-21T19:29:45.012Z,-2.57
2022-11-21T19:32:14.620Z,-2.71
2022-11-21T19:34:44.017Z,-2.70
2022-11-21T19:37:13.109Z,-2.64
2022-11-21T19:39:46.789Z,-2.68
2022-11-21T19:42:15.827Z,-2.56
2022-11-21T19:44:45.071Z,-2.52
2022-11-21T19:47:14.484Z,-2.59
2022-11-21T19:49:44.171Z,-2.56
2022-11-21T19:52:13.633Z,-2.53
2022-11-21T19:54:47.399Z,-2.60
2022-11-21T19:57:18.090Z,-2.58
2022-11-21T19:59:47.562Z,-2.58
2022-11-21T20:02:19.050Z,-2.56
2022-11-21T20:04:48.538Z,-2.58
2022-11-21T20:07:18.076Z,-2.54
2022-11-21T20:09:48.270Z,-2.57
2022-11-21T20:12:21.576Z,-2.54
2022-11-21T20:14:50.663Z,-2.56
2022-11-21T20:17:19.956Z,-2.51
2022-11-21T20:19:51.412Z,-2.53
2022-11-21T20:22:20.496Z,-2.58
2022-11-21T20:24:51.913Z,-2.64
2022-11-21T20:27:22.878Z,-2.59
2022-11-21T20:29:52.040Z,-2.59
2022-11-21T20:32:21.115Z,-2.67
2022-11-21T20:34:51.400Z,-2.64
2022-11-21T20:37:20.687Z,-2.75
2022-11-21T20:39:49.746Z,-2.72
2022-11-21T20:42:18.871Z,-2.72
2022-11-21T20:47:38.730Z,-2.74
2022-11-21T20:50:08.700Z,-2.71
2022-11-21T20:55:27.306Z,-2.58
2022-11-21T20:57:56.797Z,-2.57
2022-11-21T21:00:28.546Z,-2.65
2022-11-21T21:02:57.574Z,-2.72
2022-11-21T21:05:26.881Z,-2.64
2022-11-21T21:07:56.187Z,-2.55
2022-11-21T21:10:26.598Z,-2.57
2022-11-21T21:12:55.973Z,-2.54
2022-11-21T21:15:26.867Z,-2.58
2022-11-21T21:17:56.117Z,-2.55
2022-11-21T21:20:25.604Z,-2.65
2022-11-21T21:22:56.376Z,-2.69
2022-11-21T21:25:25.768Z,-2.73
2022-11-21T21:27:56.702Z,-2.78
2022-11-21T21:30:27.604Z,-2.84
2022-11-21T21:32:56.665Z,-2.82
2022-11-21T21:35:25.951Z,-2.78
2022-11-21T21:37:55.038Z,-2.69
2022-11-21T21:40:24.093Z,-2.73
2022-11-21T21:42:54.484Z,-2.81
2022-11-21T21:45:23.842Z,-2.66
2022-11-21T21:47:54.187Z,-2.73
2022-11-21T21:50:23.593Z,-2.79
2022-11-21T21:52:52.635Z,-2.82
2022-11-21T21:55:21.778Z,-2.83
2022-11-21T21:57:52.558Z,-2.75
2022-11-21T22:00:21.934Z,-2.83
2022-11-21T22:02:51.056Z,-2.91
2022-11-21T22:05:21.544Z,-2.88
2022-11-21T22:07:50.698Z,-2.85
2022-11-21T22:10:19.792Z,-2.80
2022-11-21T22:12:49.506Z,-2.79
2022-11-21T22:15:18.592Z,-2.75
2022-11-21T22:17:48.024Z,-2.80
2022-11-21T22:20:17.649Z,-2.79
2022-11-21T22:22:48.063Z,-2.74
2022-11-21T22:25:17.353Z,-2.65
2022-11-21T22:27:46.454Z,-2.62
2022-11-21T22:30:15.749Z,-2.57
2022-11-21T22:32:44.877Z,-2.56
2022-11-21T22:35:14.152Z,-2.52
2022-11-21T22:37:43.209Z,-2.50
2022-11-21T22:40:15.064Z,-2.48
2022-11-21T22:42:44.124Z,-2.45
2022-11-21T22:45:13.429Z,-2.43
2022-11-21T22:47:47.790Z,-2.40
2022-11-21T22:50:17.634Z,-2.44
2022-11-21T22:52:46.722Z,-2.42
2022-11-21T22:55:17.444Z,-2.43
2022-11-21T22:57:46.696Z,-2.35
2022-11-21T23:00:17.138Z,-2.35
2022-11-21T23:02:46.188Z,-2.38
2022-11-21T23:05:15.282Z,-2.37
2022-11-21T23:07:44.927Z,-2.34
2022-11-21T23:10:14.114Z,-2.33
2022-11-21T23:12:45.846Z,-2.31
2022-11-21T23:15:15.070Z,-2.32
2022-11-21T23:17:47.179Z,-2.28
2022-11-21T23:20:20.153Z,-2.26
2022-11-21T23:22:49.259Z,-2.20
2022-11-21T23:25:18.449Z,-2.24
2022-11-21T23:27:48.859Z,-2.25
2022-11-21T23:30:18.165Z,-2.23
2022-11-21T23:32:47.569Z,-2.21
2022-11-21T23:35:16.735Z,-2.20
2022-11-21T23:37:45.848Z,-2.20
2022-11-21T23:40:15.315Z,-2.19
2022-11-21T23:42:46.060Z,-2.19
2022-11-21T23:45:16.866Z,-2.17
2022-11-21T23:47:46.041Z,-2.20
2022-11-21T23:50:15.622Z,-2.20
2022-11-21T23:52:44.868Z,-2.18
2022-11-21T23:55:13.950Z,-2.20
2022-11-21T23:57:43.496Z,-2.18
